createdAt,value
2022-09-20T00:01:08.243Z,71724.78
2022-09-20T00:03:36.922Z,67660.41
2022-09-20T00:06:05.854Z,65963.25
2022-09-20T00:08:33.887Z,63929.16
2022-09-20T00:11:02.664Z,62562.41
2022-09-20T00:13:31.118Z,60517.13
2022-09-20T00:15:58.897Z,59150.06
2022-09-20T00:18:28.234Z,57794.50
2022-09-20T00:20:55.556Z,57447.19
2022-09-20T00:23:22.889Z,56087.06
2022-09-20T00:25:56.894Z,54752.63
2022-09-20T00:28:24.685Z,54410.78
2022-09-20T00:30:52.902Z,53403.50
2022-09-20T00:33:20.273Z,52059.78
2022-09-20T00:35:48.670Z,51383.25
2022-09-20T00:38:16.934Z,50722.03
2022-09-20T00:40:45.932Z,50716.84
2022-09-20T00:43:15.485Z,50041.00
2022-09-20T00:45:47.108Z,49706.75
2022-09-20T00:48:20.307Z,49697.03
2022-09-20T00:50:55.201Z,48356.16
2022-09-20T00:53:27.769Z,47356.09
2022-09-20T00:55:58.247Z,47021.94
2022-09-20T00:58:27.986Z,46685.38
2022-09-20T01:00:57.498Z,46017.84
2022-09-20T01:03:27.388Z,47004.28
2022-09-20T01:05:57.118Z,46337.78
2022-09-20T01:08:25.377Z,45671.19
2022-09-20T01:10:53.431Z,45003.81
2022-09-20T01:13:20.782Z,44339.47
2022-09-20T01:15:50.326Z,44003.09
2022-09-20T01:18:19.636Z,44004.59
2022-09-20T01:20:49.199Z,43667.50
2022-09-20T01:23:32.771Z,43999.34
2022-09-20T01:26:41.754Z,44328.84
2022-09-20T01:29:24.857Z,44324.28
2022-09-20T01:31:55.487Z,43991.06
2022-09-20T01:34:29.674Z,43320.84
2022-09-20T01:37:05.870Z,42655.78
2022-09-20T01:39:40.903Z,41989.22
2022-09-20T01:42:11.510Z,42321.06
2022-09-20T01:44:48.962Z,42319.97
2022-09-20T01:47:28.691Z,42318.88
2022-09-20T01:50:11.108Z,42309.47
2022-09-20T01:53:08.599Z,41979.88
2022-09-20T01:56:11.137Z,41649.50
2022-09-20T01:59:24.299Z,41650.22
2022-09-20T02:02:22.806Z,40995.59
2022-09-20T02:05:13.096Z,41991.00
2022-09-20T02:08:08.795Z,42329.75
2022-09-20T02:10:50.270Z,42996.41
2022-09-20T02:13:30.134Z,43659.66
2022-09-20T02:16:19.016Z,43667.50
2022-09-20T02:19:15.750Z,43337.88
2022-09-20T02:21:53.547Z,43671.97
2022-09-20T02:24:29.407Z,44339.47
2022-09-20T02:27:08.706Z,44012.09
2022-09-20T02:29:47.147Z,45007.66
2022-09-20T02:32:26.741Z,44676.59
2022-09-20T02:35:20.718Z,44349.31
2022-09-20T02:37:58.555Z,44347.78
2022-09-20T02:40:39.293Z,45348.75
2022-09-20T02:43:16.012Z,45691.09
2022-09-20T02:45:51.490Z,45697.69
2022-09-20T02:48:25.250Z,47045.19
2022-09-20T02:51:00.431Z,48379.63
2022-09-20T02:53:38.331Z,48710.22
2022-09-20T02:56:17.439Z,47712.25
2022-09-20T02:58:53.838Z,47040.38
2022-09-20T03:01:36.062Z,47041.19
2022-09-20T03:04:17.452Z,46700.91
2022-09-20T03:06:52.773Z,46700.09
2022-09-20T03:09:28.909Z,46368.59
2022-09-20T03:12:05.221Z,47029.53
2022-09-20T03:17:42.335Z,47020.31
2022-09-20T03:20:23.315Z,46685.38
2022-09-20T03:22:59.849Z,46690.16
2022-09-20T03:25:40.751Z,46027.25
2022-09-20T03:28:23.477Z,46697.31
2022-09-20T03:31:01.505Z,47694.34
2022-09-20T03:33:45.511Z,46369.00
2022-09-20T03:36:28.106Z,47704.91
2022-09-20T03:39:11.999Z,48365.22
2022-09-20T03:41:55.415Z,49701.25
2022-09-20T03:44:47.823Z,48706.09
2022-09-20T03:47:27.871Z,48705.25
2022-09-20T03:50:11.178Z,48709.81
2022-09-20T03:52:58.979Z,50056.78
2022-09-20T03:56:01.889Z,51731.19
2022-09-20T03:58:56.879Z,52738.78
2022-09-20T04:01:32.574Z,52749.56
2022-09-20T04:04:08.282Z,53092.56
2022-09-20T04:06:49.019Z,54783.34
2022-09-20T04:09:30.121Z,56469.41
2022-09-20T04:12:06.861Z,56795.91
2022-09-20T04:14:41.611Z,56799.28
2022-09-20T04:17:32.233Z,57130.56
2022-09-20T04:20:06.929Z,56117.06
2022-09-20T04:22:36.313Z,55448.34
2022-09-20T04:25:07.858Z,55453.53
2022-09-20T04:27:42.935Z,55105.78
2022-09-20T04:30:19.310Z,54769.34
2022-09-20T04:32:52.851Z,53433.91
2022-09-20T04:35:51.764Z,53431.63
2022-09-20T04:38:21.583Z,53092.56
2022-09-20T04:41:06.175Z,53759.78
2022-09-20T04:43:56.492Z,53088.97
2022-09-20T04:46:56.069Z,52749.09
2022-09-20T04:50:00.119Z,52073.97
2022-09-20T04:53:04.018Z,51409.06
2022-09-20T04:55:52.846Z,51069.41
2022-09-20T04:58:37.091Z,51397.69
2022-09-20T05:01:37.621Z,51070.25
2022-09-20T05:04:44.322Z,51068.53
2022-09-20T05:07:49.576Z,50065.28
2022-09-20T05:10:26.695Z,50067.00
2022-09-20T05:13:17.760Z,49399.41
2022-09-20T05:15:55.640Z,50411.72
2022-09-20T05:18:54.908Z,52086.38
2022-09-20T05:22:08.175Z,52100.97
2022-09-20T05:25:07.942Z,53439.34
2022-09-20T05:27:44.291Z,55109.53
2022-09-20T05:30:22.869Z,54788.91
2022-09-20T05:33:01.836Z,55801.88
2022-09-20T05:35:38.165Z,57142.19
2022-09-20T05:38:17.019Z,57812.63
2022-09-20T05:41:04.322Z,57470.09
2022-09-20T05:43:34.780Z,56455.50
2022-09-20T05:46:16.254Z,55455.41
2022-09-20T05:48:55.987Z,55121.69
2022-09-20T05:51:43.002Z,55113.28
2022-09-20T05:54:33.043Z,54097.06
2022-09-20T05:57:13.198Z,52751.78
2022-09-20T05:59:55.253Z,52081.50
2022-09-20T06:02:33.654Z,51745.69
2022-09-20T06:05:09.577Z,51072.00
2022-09-20T06:08:04.926Z,50402.28
2022-09-20T06:10:43.464Z,49395.63
2022-09-20T06:13:30.716Z,49400.69
2022-09-20T06:16:01.657Z,50728.94
2022-09-20T06:18:35.662Z,50051.66
2022-09-20T06:21:14.582Z,49388.50
2022-09-20T06:23:43.736Z,48726.84
2022-09-20T06:26:17.326Z,49061.22
2022-09-20T06:28:49.114Z,50393.69
2022-09-20T06:31:17.937Z,48404.78
2022-09-20T06:33:53.936Z,47087.31
2022-09-20T06:36:45.612Z,47443.38
2022-09-20T06:39:40.961Z,51828.03
2022-09-20T06:42:10.871Z,54212.50
2022-09-20T06:44:41.229Z,58293.50
2022-09-20T06:47:10.943Z,63734.03
2022-09-20T06:49:39.450Z,72537.38
2022-09-20T06:52:07.770Z,76947.50
2022-09-20T06:54:37.243Z,74932.19
2022-09-20T06:57:07.190Z,77004.59
2022-09-20T06:59:34.531Z,80777.28
2022-09-20T07:02:02.206Z,90959.06
2022-09-20T07:04:29.771Z,87249.75
2022-09-20T07:07:01.035Z,93396.56
2022-09-20T07:09:29.002Z,96149.81
2022-09-20T07:11:59.107Z,96505.31
2022-09-20T07:14:27.202Z,106709.72
2022-09-20T07:16:54.679Z,100886.44
2022-09-20T07:19:22.698Z,108459.63
2022-09-20T07:21:50.264Z,105029.72
2022-09-20T07:24:18.016Z,110861.03
2022-09-20T07:26:56.155Z,111520.59
2022-09-20T07:29:25.168Z,108758.41
2022-09-20T07:31:52.989Z,107050.34
2022-09-20T07:34:20.783Z,110484.69
2022-09-20T07:36:48.305Z,108106.03
2022-09-20T07:39:15.706Z,100827.88
2022-09-20T07:41:45.382Z,96394.91
2022-09-20T07:44:24.212Z,94334.31
2022-09-20T07:46:54.251Z,94977.50
2022-09-20T07:49:21.972Z,93928.22
2022-09-20T07:51:50.298Z,87765.03
2022-09-20T07:54:18.177Z,83016.84
2022-09-20T07:56:46.919Z,80325.16
2022-09-20T07:59:15.176Z,81345.53
2022-09-20T08:01:42.587Z,82397.44
2022-09-20T08:04:11.904Z,87179.22
2022-09-20T08:06:40.991Z,89573.25
2022-09-20T08:09:11.369Z,89885.34
2022-09-20T08:11:40.480Z,90942.22
2022-09-20T08:14:17.820Z,93680.41
2022-09-20T08:16:47.449Z,96098.03
2022-09-20T08:19:19.022Z,99857.41
2022-09-20T08:21:46.365Z,105330.47
2022-09-20T08:24:14.921Z,101903.81
2022-09-20T08:26:42.552Z,96476.09
2022-09-20T08:29:10.282Z,102316.38
2022-09-20T08:31:40.258Z,103020.88
2022-09-20T08:34:10.580Z,111907.72
2022-09-20T08:36:42.031Z,121178.78
2022-09-20T08:42:11.799Z,108138.78
2022-09-20T08:44:47.738Z,111956.69
2022-09-20T08:47:20.338Z,121651.47
2022-09-20T08:49:48.148Z,133145.53
2022-09-20T08:52:19.921Z,143617.31
2022-09-20T08:54:47.432Z,153301.59
2022-09-20T08:57:17.975Z,153327.38
2022-09-20T08:59:45.729Z,153342.88
2022-09-20T09:02:17.511Z,153391.91
2022-09-20T09:04:45.629Z,153366.09
2022-09-20T09:07:15.055Z,153293.81
2022-09-20T09:09:46.514Z,153194.44
2022-09-20T09:12:21.795Z,153275.78
2022-09-20T09:14:52.311Z,153247.34
2022-09-20T09:17:27.179Z,153266.72
2022-09-20T09:19:56.807Z,153324.78
2022-09-20T09:22:32.093Z,153372.53
2022-09-20T09:25:32.118Z,153398.41
2022-09-20T09:28:02.123Z,153381.59
2022-09-20T09:30:32.339Z,153273.19
2022-09-20T09:33:18.306Z,153208.63
2022-09-20T09:35:54.103Z,153236.97
2022-09-20T09:38:24.126Z,153162.19
2022-09-20T09:40:54.776Z,153194.44
2022-09-20T09:43:27.027Z,153262.88
2022-09-20T09:45:55.269Z,153280.91
2022-09-20T09:48:27.582Z,153291.22
2022-09-20T09:51:12.627Z,153442.25
2022-09-20T09:53:40.692Z,153360.91
2022-09-20T09:56:30.224Z,153443.53
2022-09-20T09:59:25.949Z,153461.63
2022-09-20T10:02:01.564Z,153412.53
2022-09-20T10:04:36.751Z,153373.81
2022-09-20T10:07:11.528Z,153335.13
2022-09-20T10:09:55.313Z,153304.19
2022-09-20T10:12:45.607Z,153299.00
2022-09-20T10:15:37.311Z,153224.06
2022-09-20T10:18:22.951Z,153221.53
2022-09-20T10:21:03.043Z,153216.34
2022-09-20T10:24:03.168Z,153224.06
2022-09-20T10:26:43.778Z,153288.69
2022-09-20T10:29:26.063Z,153398.41
2022-09-20T10:32:03.686Z,153504.25
2022-09-20T10:35:06.734Z,153464.22
2022-09-20T10:37:49.351Z,153497.78
2022-09-20T10:40:48.289Z,153586.97
2022-09-20T10:43:30.993Z,153633.44
2022-09-20T10:49:05.005Z,153623.09
2022-09-20T10:51:44.995Z,153614.09
2022-09-20T10:54:26.527Z,153610.19
2022-09-20T10:57:19.625Z,153601.16
2022-09-20T10:59:53.665Z,153521.00
2022-09-20T11:02:36.134Z,153477.13
2022-09-20T11:05:19.828Z,153562.34
2022-09-20T11:07:59.625Z,153521.00
2022-09-20T11:10:36.086Z,153665.75
2022-09-20T11:13:08.766Z,153688.97
2022-09-20T11:15:43.364Z,153725.16
2022-09-20T11:18:20.933Z,153797.53
2022-09-20T11:20:57.466Z,153701.91
2022-09-20T11:23:30.679Z,153717.41
2022-09-20T11:26:05.945Z,153765.19
2022-09-20T11:28:40.193Z,153676.06
2022-09-20T11:31:11.164Z,153627.00
2022-09-20T11:33:46.475Z,153641.22
2022-09-20T11:36:20.044Z,153677.38
2022-09-20T11:38:53.293Z,153673.47
2022-09-20T11:41:26.981Z,153704.50
2022-09-20T11:43:56.662Z,153657.97
2022-09-20T11:46:28.826Z,153695.47
2022-09-20T11:49:02.468Z,153743.25
2022-09-20T11:52:09.701Z,153735.53
2022-09-20T11:54:57.842Z,153886.75
2022-09-20T11:57:26.101Z,153902.25
2022-09-20T11:59:57.226Z,153973.38
2022-09-20T12:02:34.039Z,154005.75
2022-09-20T12:05:05.372Z,153915.19
2022-09-20T12:07:37.963Z,153734.22
2022-09-20T12:10:09.162Z,153676.06
2022-09-20T12:12:41.538Z,153627.00
2022-09-20T12:15:24.754Z,153699.31
2022-09-20T12:18:38.068Z,153668.34
2022-09-20T12:21:14.990Z,153748.44
2022-09-20T12:24:22.353Z,153828.56
2022-09-20T12:26:52.242Z,153955.25
2022-09-20T12:30:15.940Z,153908.75
2022-09-20T12:32:50.534Z,153908.75
2022-09-20T12:35:59.922Z,153776.81
2022-09-20T12:38:31.185Z,153727.75
2022-09-20T12:41:00.693Z,153725.16
2022-09-20T12:43:30.073Z,153803.97
2022-09-20T12:46:02.867Z,153849.22
2022-09-20T12:48:37.821Z,153832.41
2022-09-20T12:51:31.962Z,153851.81
2022-09-20T12:54:02.798Z,153872.53
2022-09-20T12:56:34.177Z,153875.13
2022-09-20T12:59:05.737Z,153815.63
2022-09-20T13:01:39.226Z,153792.34
2022-09-20T13:04:41.828Z,153807.84
2022-09-20T13:07:34.904Z,153767.78
2022-09-20T13:10:06.694Z,153825.97
2022-09-20T13:12:40.254Z,153867.38
2022-09-20T13:15:15.827Z,153957.88
2022-09-20T13:17:45.080Z,154027.69
2022-09-20T13:20:21.643Z,154083.31
2022-09-20T13:22:49.671Z,154053.56
2022-09-20T13:25:20.333Z,154050.97
2022-09-20T13:27:52.294Z,154074.22
2022-09-20T13:30:21.990Z,154157.06
2022-09-20T13:32:51.333Z,154120.81
2022-09-20T13:35:22.555Z,154135.06
2022-09-20T13:37:55.775Z,154160.97
2022-09-20T13:40:32.068Z,154144.13
2022-09-20T13:43:22.612Z,154092.34
2022-09-20T13:45:55.439Z,154072.97
2022-09-20T13:48:25.694Z,153996.66
2022-09-20T13:50:54.808Z,153891.94
2022-09-20T13:53:40.584Z,153864.78
2022-09-20T13:56:11.182Z,153889.34
2022-09-20T13:58:39.015Z,153919.09
2022-09-20T14:01:19.800Z,153929.41
2022-09-20T14:03:48.440Z,153863.50
2022-09-20T14:06:17.331Z,153650.25
2022-09-20T14:08:47.713Z,153589.50
2022-09-20T14:11:17.744Z,153419.03
2022-09-20T14:13:48.503Z,153329.97
2022-09-20T14:16:18.809Z,153086.09
2022-09-20T14:18:48.036Z,153053.84
2022-09-20T14:21:22.795Z,153025.47
2022-09-20T14:23:52.418Z,152981.63
2022-09-20T14:26:25.941Z,153011.28
2022-09-20T14:28:53.423Z,153055.13
2022-09-20T14:31:24.981Z,153003.56
2022-09-20T14:33:55.623Z,153040.94
2022-09-20T14:36:27.475Z,153046.13
2022-09-20T14:38:57.965Z,153044.81
2022-09-20T14:41:28.763Z,153071.91
2022-09-20T14:44:02.538Z,153118.31
2022-09-20T14:46:33.775Z,153193.16
2022-09-20T14:49:32.711Z,153164.75
2022-09-20T14:52:38.915Z,153169.88
2022-09-20T14:55:20.623Z,153231.84
2022-09-20T14:57:48.789Z,153239.56
2022-09-20T15:00:18.863Z,153249.94
2022-09-20T15:02:47.660Z,153220.25
2022-09-20T15:05:21.426Z,153265.41
2022-09-20T15:07:50.633Z,153238.28
2022-09-20T15:10:18.109Z,153257.69
2022-09-20T15:12:45.626Z,153252.50
2022-09-20T15:15:18.796Z,153251.22
2022-09-20T15:17:47.525Z,153206.03
2022-09-20T15:20:23.186Z,153208.63
2022-09-20T15:22:52.834Z,153257.69
2022-09-20T15:25:21.884Z,153186.69
2022-09-20T15:27:50.815Z,153221.53
2022-09-20T15:30:20.901Z,153229.25
2022-09-20T15:32:48.836Z,153198.28
2022-09-20T15:35:16.302Z,153209.94
2022-09-20T15:37:43.645Z,153209.94
2022-09-20T15:40:12.905Z,153255.09
2022-09-20T15:42:41.485Z,153221.53
2022-09-20T15:45:11.097Z,153231.84
2022-09-20T15:47:39.522Z,153180.25
2022-09-20T15:50:08.953Z,153169.88
2022-09-20T15:52:39.718Z,153191.84
2022-09-20T15:55:08.255Z,153236.97
2022-09-20T15:57:36.934Z,153242.16
2022-09-20T16:00:05.018Z,153252.50
2022-09-20T16:02:32.412Z,153266.72
2022-09-20T16:04:59.812Z,153274.47
2022-09-20T16:07:27.386Z,153255.09
2022-09-20T16:09:55.785Z,153236.97
2022-09-20T16:12:24.885Z,153265.41
2022-09-20T16:14:53.601Z,153259.00
2022-09-20T16:17:41.509Z,153221.53
2022-09-20T16:20:08.611Z,153114.47
2022-09-20T16:22:35.986Z,153104.13
2022-09-20T16:25:05.846Z,153115.72
2022-09-20T16:27:34.349Z,153118.31
2022-09-20T16:30:03.578Z,153095.09
2022-09-20T16:32:30.978Z,153034.53
2022-09-20T16:35:01.087Z,152998.38
2022-09-20T16:37:32.964Z,152927.47
2022-09-20T16:40:00.625Z,152991.97
2022-09-20T16:42:29.142Z,153004.84
2022-09-20T16:44:57.227Z,152989.38
2022-09-20T16:47:26.224Z,152902.97
2022-09-20T16:49:54.152Z,152873.28
2022-09-20T16:52:22.038Z,152860.41
2022-09-20T16:54:49.780Z,152882.34
2022-09-20T16:57:17.180Z,152868.16
2022-09-20T16:59:45.361Z,152884.91
2022-09-20T17:02:15.826Z,152847.50
2022-09-20T17:04:44.512Z,152886.22
2022-09-20T17:07:12.301Z,152900.41
2022-09-20T17:09:39.831Z,152823.03
2022-09-20T17:12:09.411Z,152944.25
2022-09-20T17:14:37.827Z,152924.94
2022-09-20T17:17:05.194Z,152955.84
2022-09-20T17:19:33.309Z,152941.66
2022-09-20T17:22:02.208Z,152952.00
2022-09-20T17:24:30.392Z,152866.88
2022-09-20T17:26:57.757Z,152861.69
2022-09-20T17:29:25.098Z,152834.63
2022-09-20T17:31:56.715Z,152816.63
2022-09-20T17:34:26.242Z,152816.63
2022-09-20T17:36:55.317Z,152853.97
2022-09-20T17:39:24.657Z,152839.78
2022-09-20T17:41:52.539Z,152814.03
2022-09-20T17:44:20.166Z,152837.22
2022-09-20T17:46:49.550Z,152832.09
2022-09-20T17:49:19.291Z,152823.03
2022-09-20T17:51:48.058Z,152909.47
2022-09-20T17:54:16.195Z,152762.50
2022-09-20T17:56:46.407Z,129955.75
2022-09-20T17:59:16.060Z,119918.09
2022-09-20T18:01:44.655Z,110588.81
2022-09-20T18:04:12.549Z,105765.41
2022-09-20T18:06:42.106Z,98240.84
2022-09-20T18:09:11.357Z,94138.97
2022-09-20T18:11:40.799Z,92093.47
2022-09-20T18:14:11.130Z,87678.53
2022-09-20T18:16:38.763Z,85636.31
2022-09-20T18:19:07.328Z,84964.69
2022-09-20T18:21:36.158Z,83603.03
2022-09-20T18:24:06.572Z,82568.91
2022-09-20T18:26:34.521Z,81889.97
2022-09-20T18:29:05.096Z,80577.28
2022-09-20T18:31:36.654Z,81270.06
2022-09-20T18:34:05.848Z,82297.44
2022-09-20T18:36:36.032Z,82987.44
2022-09-20T18:39:03.655Z,82998.66
2022-09-20T18:41:33.597Z,84357.00
2022-09-20T18:44:04.064Z,84009.94
2022-09-20T18:46:32.070Z,84683.47
2022-09-20T18:49:04.640Z,85005.53
2022-09-20T18:51:37.183Z,83633.34
2022-09-20T18:54:09.073Z,81939.72
2022-09-20T18:56:38.224Z,85303.72
2022-09-20T18:59:07.483Z,83942.66
2022-09-20T19:01:53.488Z,83244.44
2022-09-20T19:04:32.949Z,82902.13
2022-09-20T19:07:08.664Z,82893.72
2022-09-20T19:09:43.968Z,82885.31
2022-09-20T19:12:18.728Z,83890.28
2022-09-20T19:15:00.597Z,83857.75
2022-09-20T19:17:50.486Z,81139.22
2022-09-20T19:20:28.170Z,80119.38
2022-09-20T19:23:05.556Z,80761.91
2022-09-20T19:25:42.441Z,77721.50
2022-09-20T19:28:12.421Z,77370.41
2022-09-20T19:30:42.381Z,77001.22
2022-09-20T19:33:16.726Z,74646.69
2022-09-20T19:35:49.622Z,72956.13
2022-09-20T19:38:31.301Z,72288.38
2022-09-20T19:41:08.762Z,74312.16
2022-09-20T19:43:57.786Z,73977.00
2022-09-20T19:46:42.297Z,72970.28
2022-09-20T19:49:15.173Z,73659.31
2022-09-20T19:51:45.437Z,74680.78
2022-09-20T19:54:14.878Z,74352.38
2022-09-20T19:56:52.854Z,75367.31
2022-09-20T19:59:21.292Z,75019.25
2022-09-20T20:01:49.839Z,73673.59
2022-09-20T20:04:17.858Z,73322.81
2022-09-20T20:06:55.832Z,70967.78
2022-09-20T20:09:33.556Z,70289.06
2022-09-20T20:12:04.034Z,69948.00
2022-09-20T20:14:38.939Z,69929.66
2022-09-20T20:17:21.679Z,69254.31
2022-09-20T20:20:01.629Z,69554.56
2022-09-20T20:22:43.397Z,67864.81
2022-09-20T20:25:26.379Z,67175.34
2022-09-20T20:27:53.812Z,66821.44
2022-09-20T20:30:21.343Z,65486.44
2022-09-20T20:32:48.658Z,65479.22
2022-09-20T20:35:17.170Z,64476.59
2022-09-20T20:37:47.317Z,63808.56
2022-09-20T20:40:14.994Z,64794.16
2022-09-20T20:42:43.739Z,62789.91
2022-09-20T20:45:11.702Z,62782.47
2022-09-20T20:47:39.857Z,62443.22
2022-09-20T20:50:07.834Z,60780.34
2022-09-20T20:52:35.180Z,60462.28
2022-09-20T20:55:04.105Z,61452.94
2022-09-20T20:57:31.891Z,60766.41
2022-09-20T20:59:59.299Z,59429.78
2022-09-20T21:02:26.650Z,58748.00
2022-09-20T21:04:54.128Z,57735.16
2022-09-20T21:07:21.715Z,56064.66
2022-09-20T21:09:49.100Z,55391.38
2022-09-20T21:12:18.431Z,54390.44
2022-09-20T21:14:45.805Z,53060.53
2022-09-20T21:17:13.131Z,53067.31
2022-09-20T21:19:40.474Z,53066.88
2022-09-20T21:22:07.819Z,52735.19
2022-09-20T21:24:35.163Z,53731.94
2022-09-20T21:27:04.634Z,53054.25
2022-09-20T21:29:33.382Z,52058.47
2022-09-20T21:32:00.716Z,52047.84
2022-09-20T21:34:28.040Z,52039.88
2022-09-20T21:36:55.449Z,51038.53
2022-09-20T21:39:23.796Z,50371.41
2022-09-20T21:41:52.327Z,49370.81
2022-09-20T21:44:20.466Z,49376.28
2022-09-20T21:46:49.941Z,48708.97
2022-09-20T21:49:17.762Z,49710.56
2022-09-20T21:51:45.169Z,50042.28
2022-09-20T21:54:12.585Z,49708.88
2022-09-20T21:56:40.747Z,49711.00
2022-09-20T21:59:09.343Z,50041.00
2022-09-20T22:01:38.392Z,49707.19
2022-09-20T22:04:09.354Z,49707.19
2022-09-20T22:06:38.782Z,49704.63
2022-09-20T22:09:08.303Z,49042.00
2022-09-20T22:11:38.774Z,49044.50
2022-09-20T22:14:07.613Z,49376.28
2022-09-20T22:16:36.775Z,49374.19
2022-09-20T22:19:05.439Z,49705.47
2022-09-20T22:21:36.656Z,49366.19
2022-09-20T22:24:06.153Z,49027.41
2022-09-20T22:26:35.878Z,48356.16
2022-09-20T22:29:04.663Z,48350.81
2022-09-20T22:31:34.146Z,47681.34
2022-09-20T22:34:03.865Z,47348.03
2022-09-20T22:36:35.055Z,47348.84
2022-09-20T22:39:03.030Z,46340.94
2022-09-20T22:41:30.389Z,47342.38
2022-09-20T22:43:57.787Z,47004.28
2022-09-20T22:46:27.151Z,46996.28
2022-09-20T22:48:54.739Z,45999.00
2022-09-20T22:51:23.758Z,46677.00
2022-09-20T22:53:53.050Z,47669.13
2022-09-20T22:56:22.155Z,47666.72
2022-09-20T22:58:51.379Z,47668.31
2022-09-20T23:01:20.370Z,47665.06
2022-09-20T23:03:53.375Z,47331.88
2022-09-20T23:06:22.883Z,47325.44
2022-09-20T23:08:53.231Z,47987.19
2022-09-20T23:11:21.250Z,46988.25
2022-09-20T23:13:48.646Z,47321.41
2022-09-20T23:16:18.505Z,47652.06
2022-09-20T23:18:46.695Z,46987.44
2022-09-20T23:21:14.675Z,47324.63
2022-09-20T23:23:43.232Z,46994.66
2022-09-20T23:26:13.416Z,47985.56
2022-09-20T23:28:42.617Z,47983.94
2022-09-20T23:31:12.513Z,47975.75
2022-09-20T23:33:44.747Z,47642.31
2022-09-20T23:36:14.081Z,47305.22
2022-09-20T23:38:41.464Z,47301.59
2022-09-20T23:41:14.920Z,46966.59
2022-09-20T23:43:44.508Z,46302.97
2022-09-20T23:46:14.284Z,46297.44
2022-09-20T23:48:42.252Z,46295.47
2022-09-20T23:51:11.394Z,45634.94
2022-09-20T23:53:38.805Z,45638.47
2022-09-20T23:56:07.163Z,45969.13
2022-09-20T23:58:36.633Z,46302.97
